createdAt,value
2022-12-14T00:03:51.681Z,99516.97
2022-12-14T00:08:56.475Z,99518.84
2022-12-14T00:14:00.732Z,99510.06
2022-12-14T00:19:05.681Z,99496.56
2022-12-14T00:24:10.310Z,99493.06
2022-12-14T00:29:13.182Z,99475.56
2022-12-14T00:34:17.599Z,99468.94
2022-12-14T00:39:20.928Z,99475.16
2022-12-14T00:44:23.777Z,99458.47
2022-12-14T00:49:28.030Z,99458.06
2022-12-14T00:54:30.728Z,99453.75
2022-12-14T00:59:33.462Z,99448.63
2022-12-14T01:04:37.674Z,99450.13
2022-12-14T01:09:40.353Z,99446.91
2022-12-14T01:14:43.055Z,99441.41
2022-12-14T01:19:48.993Z,99456.81
2022-12-14T01:24:52.324Z,99445.22
2022-12-14T01:29:55.026Z,99457.38
2022-12-14T01:34:59.042Z,99457.91
2022-12-14T01:40:01.795Z,99455.50
2022-12-14T01:45:05.991Z,99452.69
2022-12-14T01:50:18.963Z,99449.47
2022-12-14T01:55:23.938Z,99442.16
2022-12-14T02:00:26.785Z,99449.34
2022-12-14T02:05:31.488Z,99448.44
2022-12-14T02:10:34.602Z,99437.44
2022-12-14T02:15:39.177Z,99421.69
2022-12-14T02:20:53.953Z,99417.16
2022-12-14T02:26:28.370Z,99413.91
2022-12-14T02:31:36.077Z,99399.72
2022-12-14T02:36:43.950Z,99403.34
2022-12-14T02:41:52.354Z,99394.31
2022-12-14T02:46:59.349Z,99388.72
2022-12-14T02:52:07.588Z,99388.56
2022-12-14T02:57:14.831Z,99379.69
2022-12-14T03:02:19.597Z,99388.63
2022-12-14T03:07:34.626Z,99381.09
2022-12-14T03:12:40.736Z,99369.56
2022-12-14T03:17:49.063Z,99370.34
2022-12-14T03:22:54.502Z,99363.56
2022-12-14T03:28:01.829Z,99350.03
2022-12-14T03:33:07.677Z,99349.22
2022-12-14T03:38:15.409Z,99346.81
2022-12-14T03:43:21.899Z,99340.19
2022-12-14T03:48:31.313Z,99335.41
2022-12-14T03:53:39.396Z,99329.53
2022-12-14T03:58:55.361Z,99334.34
2022-12-14T04:04:05.277Z,99331.94
2022-12-14T04:09:18.873Z,99318.16
2022-12-14T04:14:42.419Z,99311.09
2022-12-14T04:19:49.916Z,99300.34
2022-12-14T04:25:14.449Z,99294.81
2022-12-14T04:30:17.548Z,99275.44
2022-12-14T04:35:23.951Z,99268.88
2022-12-14T04:40:30.348Z,99264.34
2022-12-14T04:45:36.961Z,99253.47
2022-12-14T04:50:45.006Z,99248.97
2022-12-14T04:55:52.297Z,99237.97
2022-12-14T05:01:09.755Z,99233.06
2022-12-14T05:06:19.704Z,99231.91
2022-12-14T05:16:50.559Z,99214.75
2022-12-14T05:21:56.022Z,99214.38
2022-12-14T05:26:58.988Z,99211.22
2022-12-14T05:32:02.013Z,99199.22
2022-12-14T05:37:06.078Z,99193.44
2022-12-14T05:42:08.783Z,99181.41
2022-12-14T05:47:11.706Z,99178.91
2022-12-14T05:52:15.896Z,99175.94
2022-12-14T05:57:18.585Z,99182.66
2022-12-14T06:02:21.411Z,99175.03
2022-12-14T06:07:27.932Z,99180.59
2022-12-14T06:12:31.552Z,99190.66
2022-12-14T06:17:34.263Z,99176.69
2022-12-14T06:22:42.758Z,99167.69
2022-12-14T06:27:48.592Z,99160.75
2022-12-14T06:32:51.313Z,99154.53
2022-12-14T06:37:55.796Z,99151.41
2022-12-14T06:42:58.572Z,99145.81
2022-12-14T06:48:02.056Z,99133.97
2022-12-14T06:53:06.251Z,99130.13
2022-12-14T06:58:12.455Z,99126.91
2022-12-14T07:03:15.271Z,99119.59
2022-12-14T07:08:20.449Z,99120.63
2022-12-14T07:13:23.642Z,99116.59
2022-12-14T07:18:27.109Z,99112.16
2022-12-14T07:23:32.841Z,99110.34
2022-12-14T07:28:36.976Z,99106.94
2022-12-14T07:33:39.711Z,99104.22
2022-12-14T07:38:45.406Z,99091.34
2022-12-14T07:43:49.738Z,99082.81
2022-12-14T07:48:54.743Z,99074.41
2022-12-14T07:53:59.593Z,99073.75
2022-12-14T07:59:04.116Z,99061.78
2022-12-14T08:04:08.737Z,99061.31
2022-12-14T08:09:13.398Z,99055.72
2022-12-14T08:14:18.158Z,99047.13
2022-12-14T08:19:21.117Z,99046.56
2022-12-14T08:24:25.510Z,99030.81
2022-12-14T08:29:28.344Z,99023.47
2022-12-14T08:34:31.270Z,99014.84
2022-12-14T08:39:35.456Z,99009.16
2022-12-14T08:44:38.243Z,99001.59
2022-12-14T08:49:41.277Z,98996.91
2022-12-14T08:54:45.692Z,98994.75
2022-12-14T09:00:03.965Z,98993.91
2022-12-14T09:05:07.154Z,98999.94
2022-12-14T09:10:11.871Z,98994.44
2022-12-14T09:15:14.702Z,98978.19
2022-12-14T09:20:19.355Z,98973.25
2022-12-14T09:25:23.571Z,98964.13
2022-12-14T09:30:27.038Z,98957.44
2022-12-14T09:35:30.063Z,98945.31
2022-12-14T09:40:34.239Z,98952.78
2022-12-14T09:45:46.216Z,98954.03
2022-12-14T09:50:50.590Z,98934.59
2022-12-14T09:55:56.734Z,98914.84
2022-12-14T10:01:05.992Z,98916.88
2022-12-14T10:06:29.050Z,98916.03
2022-12-14T10:11:38.641Z,98910.59
2022-12-14T10:16:51.471Z,98893.53
2022-12-14T10:21:58.777Z,98887.75
2022-12-14T10:27:03.193Z,98886.13
2022-12-14T10:32:19.122Z,98884.06
2022-12-14T10:37:26.556Z,98879.75
2022-12-14T10:42:33.913Z,98881.91
2022-12-14T10:47:40.245Z,98884.13
2022-12-14T10:52:44.049Z,98875.25
2022-12-14T10:57:48.311Z,98875.63
2022-12-14T11:02:55.302Z,98868.28
2022-12-14T11:07:58.180Z,98862.53
2022-12-14T11:13:06.804Z,98868.53
2022-12-14T11:18:25.124Z,98857.81
2022-12-14T11:23:30.199Z,98868.47
2022-12-14T11:28:37.778Z,98856.63
2022-12-14T11:33:45.636Z,98848.09
2022-12-14T11:38:57.331Z,98852.41
2022-12-14T11:44:22.889Z,98846.22
2022-12-14T11:49:28.239Z,98844.81
2022-12-14T11:54:31.909Z,98839.19
2022-12-14T11:59:40.897Z,98829.47
2022-12-14T12:04:46.380Z,98817.63
2022-12-14T12:09:49.127Z,98827.47
2022-12-14T12:14:57.099Z,98820.00
2022-12-14T12:20:00.180Z,98819.06
2022-12-14T12:30:33.238Z,98806.75
2022-12-14T12:35:38.932Z,98809.66
2022-12-14T12:40:53.417Z,98805.44
2022-12-14T12:46:00.241Z,98803.34
2022-12-14T12:51:05.404Z,98808.28
2022-12-14T12:56:11.856Z,98789.25
2022-12-14T13:01:25.539Z,98787.38
2022-12-14T13:06:31.333Z,98793.50
2022-12-14T13:11:38.813Z,98796.31
2022-12-14T13:16:43.453Z,98798.19
2022-12-14T13:21:49.721Z,98792.69
2022-12-14T13:27:29.467Z,98797.44
2022-12-14T13:32:47.118Z,98791.44
2022-12-14T13:38:01.911Z,98794.66
2022-12-14T13:43:16.956Z,98808.56
2022-12-14T13:48:24.516Z,98785.91
2022-12-14T13:53:29.907Z,98787.44
2022-12-14T13:58:35.082Z,98794.16
2022-12-14T14:03:56.210Z,98782.69
2022-12-14T14:09:03.077Z,98771.91
2022-12-14T14:14:15.692Z,98772.84
2022-12-14T14:19:23.728Z,98770.31
2022-12-14T14:24:27.445Z,98760.94
2022-12-14T14:29:31.029Z,98752.38
2022-12-14T14:34:39.910Z,98761.75
2022-12-14T14:40:07.244Z,98752.97
2022-12-14T14:45:07.874Z,98750.28
2022-12-14T14:50:22.373Z,98767.75
2022-12-14T14:56:01.124Z,98760.72
2022-12-14T15:01:10.744Z,98752.16
2022-12-14T15:06:20.020Z,98747.50
2022-12-14T15:11:24.234Z,98751.91
2022-12-14T15:16:32.605Z,98753.66
2022-12-14T15:21:39.217Z,98760.91
2022-12-14T15:26:42.589Z,98755.97
2022-12-14T15:31:46.994Z,98770.03
2022-12-14T15:36:51.864Z,98772.41
2022-12-14T15:42:03.392Z,98779.28
2022-12-14T15:47:07.775Z,98770.84
2022-12-14T15:52:12.279Z,98778.56
2022-12-14T15:57:18.312Z,98771.69
2022-12-14T16:02:25.513Z,98767.03
2022-12-14T16:07:34.615Z,98775.56
2022-12-14T16:12:44.384Z,98773.13
2022-12-14T16:17:48.152Z,98779.78
2022-12-14T16:23:07.772Z,98786.44
2022-12-14T16:28:21.929Z,98794.88
2022-12-14T16:33:25.725Z,98791.22
2022-12-14T16:38:30.285Z,98802.84
2022-12-14T16:43:36.040Z,98802.13
2022-12-14T16:48:41.655Z,98802.34
2022-12-14T16:53:52.443Z,98802.38
2022-12-14T16:58:57.637Z,98801.28
2022-12-14T17:04:03.547Z,98797.44
2022-12-14T17:09:08.168Z,98806.72
2022-12-14T17:14:11.083Z,98817.44
2022-12-14T17:19:21.242Z,98814.28
2022-12-14T17:24:25.419Z,98820.34
2022-12-14T17:29:29.993Z,98821.53
2022-12-14T17:34:32.763Z,98818.94
2022-12-14T17:39:38.289Z,98826.09
2022-12-14T17:44:42.009Z,98826.91
2022-12-14T17:49:44.794Z,98829.34
2022-12-14T17:54:48.962Z,98839.44
2022-12-14T18:00:13.112Z,98837.06
2022-12-14T18:05:19.376Z,98826.38
2022-12-14T18:10:24.045Z,98827.72
2022-12-14T18:15:28.645Z,98844.09
2022-12-14T18:20:31.672Z,98845.56
2022-12-14T18:25:38.013Z,98845.06
2022-12-14T18:30:47.677Z,98845.00
2022-12-14T18:35:53.493Z,98836.81
2022-12-14T18:41:00.174Z,98835.19
2022-12-14T18:46:03.041Z,98843.28
2022-12-14T18:51:06.594Z,98830.47
2022-12-14T18:56:16.200Z,98832.44
2022-12-14T19:01:20.741Z,98836.81
2022-12-14T19:11:49.280Z,98852.19
2022-12-14T19:16:51.976Z,98861.50
2022-12-14T19:21:54.886Z,98867.19
2022-12-14T19:26:59.224Z,98874.19
2022-12-14T19:32:05.619Z,98871.34
2022-12-14T19:37:08.907Z,98865.50
2022-12-14T19:42:13.941Z,98861.38
2022-12-14T19:47:16.708Z,98873.44
2022-12-14T19:52:19.666Z,98871.09
2022-12-14T19:57:23.899Z,98872.22
2022-12-14T20:02:26.805Z,98877.59
2022-12-14T20:07:29.775Z,98885.84
2022-12-14T20:12:34.675Z,98881.00
2022-12-14T20:17:37.567Z,98882.81
2022-12-14T20:22:40.614Z,98889.69
2022-12-14T20:27:44.950Z,98885.19
2022-12-14T20:32:49.116Z,98893.94
2022-12-14T20:37:53.684Z,98887.44
2022-12-14T20:42:57.826Z,98901.31
2022-12-14T20:48:00.616Z,98913.66
2022-12-14T20:53:03.456Z,98914.69
2022-12-14T20:58:07.563Z,98915.59
2022-12-14T21:03:10.466Z,98922.56
2022-12-14T21:08:15.634Z,98916.91
2022-12-14T21:13:19.953Z,98926.94
2022-12-14T21:18:24.574Z,98938.63
2022-12-14T21:23:27.782Z,98940.34
2022-12-14T21:28:32.469Z,98936.19
2022-12-14T21:33:36.371Z,98947.81
2022-12-14T21:38:39.300Z,98947.41
2022-12-14T21:43:43.421Z,98945.78
2022-12-14T21:48:46.599Z,98944.19
2022-12-14T21:54:00.979Z,98955.41
2022-12-14T21:59:05.083Z,98962.94
2022-12-14T22:04:07.875Z,98970.50
2022-12-14T22:09:10.597Z,98981.88
2022-12-14T22:14:15.242Z,98975.59
2022-12-14T22:19:21.111Z,98979.31
2022-12-14T22:24:24.803Z,98978.19
2022-12-14T22:29:28.880Z,98984.97
2022-12-14T22:34:31.631Z,98982.66
2022-12-14T22:39:34.339Z,98996.91
2022-12-14T22:44:38.865Z,98993.81
2022-12-14T22:49:41.617Z,99004.06
2022-12-14T22:54:44.663Z,98999.69
2022-12-14T22:59:57.678Z,99005.31
2022-12-14T23:05:00.456Z,99015.50
2022-12-14T23:10:20.858Z,99008.94
2022-12-14T23:15:42.351Z,99017.09
2022-12-14T23:21:02.599Z,99001.97
2022-12-14T23:26:23.429Z,99007.56
2022-12-14T23:31:44.893Z,99017.06
2022-12-14T23:37:04.927Z,99022.13
2022-12-14T23:42:25.372Z,99029.19
2022-12-14T23:47:46.795Z,99027.88
2022-12-14T23:53:09.945Z,99017.19
2022-12-14T23:58:30.056Z,99021.47
